createdAt,value
2022-10-18T00:00:50.781Z,5.70
2022-10-18T00:03:53.578Z,5.73
2022-10-18T00:06:56.123Z,5.87
2022-10-18T00:09:59.044Z,5.62
2022-10-18T00:13:01.613Z,6.25
2022-10-18T00:16:05.645Z,4.07
2022-10-18T00:19:08.053Z,5.37
2022-10-18T00:22:10.940Z,4.85
2022-10-18T00:25:13.652Z,5.10
2022-10-18T00:28:16.376Z,4.82
2022-10-18T00:31:19.952Z,4.70
2022-10-18T00:34:22.687Z,5.20
2022-10-18T00:37:25.125Z,5.82
2022-10-18T00:40:27.877Z,5.57
2022-10-18T00:43:30.556Z,5.57
2022-10-18T00:46:38.653Z,5.30
2022-10-18T00:49:43.606Z,5.20
2022-10-18T00:52:49.620Z,5.78
2022-10-18T00:55:52.125Z,6.35
2022-10-18T00:58:54.934Z,5.72
2022-10-18T01:01:57.544Z,5.90
2022-10-18T01:05:00.264Z,6.17
2022-10-18T01:08:29.327Z,6.15
2022-10-18T01:12:03.069Z,6.78
2022-10-18T01:15:27.061Z,7.18
2022-10-18T01:18:33.231Z,6.30
2022-10-18T01:21:47.698Z,6.43
2022-10-18T01:25:07.290Z,7.03
2022-10-18T01:28:33.725Z,6.45
2022-10-18T01:31:56.370Z,6.62
2022-10-18T01:35:09.513Z,6.47
2022-10-18T01:38:17.226Z,5.73
2022-10-18T01:41:22.668Z,6.70
2022-10-18T01:44:27.217Z,6.35
2022-10-18T01:47:31.226Z,6.65
2022-10-18T01:50:35.178Z,6.67
2022-10-18T01:53:37.661Z,6.83
2022-10-18T01:57:00.544Z,6.55
2022-10-18T02:00:17.394Z,6.18
2022-10-18T02:03:24.522Z,6.07
2022-10-18T02:06:32.511Z,6.87
2022-10-18T02:09:43.518Z,6.20
2022-10-18T02:12:47.001Z,5.95
2022-10-18T02:15:54.652Z,6.15
2022-10-18T02:19:12.213Z,6.37
2022-10-18T02:22:15.346Z,6.77
2022-10-18T02:25:21.976Z,5.77
2022-10-18T02:31:36.042Z,6.80
2022-10-18T02:34:49.463Z,7.00
2022-10-18T02:37:53.071Z,6.33
2022-10-18T02:40:55.765Z,6.57
2022-10-18T02:43:58.279Z,6.43
2022-10-18T02:47:01.603Z,6.50
2022-10-18T02:50:04.395Z,6.90
2022-10-18T02:53:08.815Z,7.57
2022-10-18T02:56:11.295Z,7.50
2022-10-18T02:59:14.293Z,7.00
2022-10-18T03:02:16.816Z,7.25
2022-10-18T03:05:19.526Z,7.00
2022-10-18T03:08:22.818Z,7.57
2022-10-18T03:11:25.619Z,6.87
2022-10-18T03:14:28.080Z,7.93
2022-10-18T03:17:30.969Z,6.75
2022-10-18T03:20:34.482Z,7.32
2022-10-18T03:23:37.332Z,6.90
2022-10-18T03:26:39.854Z,7.10
2022-10-18T03:29:42.735Z,7.95
2022-10-18T03:32:45.318Z,7.97
2022-10-18T03:35:48.007Z,8.00
2022-10-18T03:38:50.571Z,8.20
2022-10-18T03:41:53.335Z,8.50
2022-10-18T03:44:55.757Z,8.43
2022-10-18T03:51:02.542Z,8.55
2022-10-18T03:54:05.314Z,8.73
2022-10-18T03:57:07.741Z,8.73
2022-10-18T04:00:11.049Z,9.55
2022-10-18T04:03:15.267Z,9.30
2022-10-18T04:06:17.955Z,8.55
2022-10-18T04:09:24.731Z,8.33
2022-10-18T04:12:27.613Z,8.97
2022-10-18T04:15:30.092Z,8.57
2022-10-18T04:18:32.876Z,9.77
2022-10-18T04:21:35.341Z,9.82
2022-10-18T04:24:38.863Z,9.43
2022-10-18T04:27:41.338Z,9.40
2022-10-18T04:30:44.280Z,10.65
2022-10-18T04:33:46.760Z,10.07
2022-10-18T04:36:49.540Z,10.07
2022-10-18T04:39:53.663Z,10.30
2022-10-18T04:42:56.658Z,10.60
2022-10-18T04:45:59.109Z,9.52
2022-10-18T04:49:01.866Z,10.18
2022-10-18T04:52:04.508Z,10.43
2022-10-18T04:55:07.515Z,9.73
2022-10-18T04:58:09.935Z,9.80
2022-10-18T05:01:13.285Z,9.60
2022-10-18T05:04:15.770Z,9.93
2022-10-18T05:07:18.912Z,9.20
2022-10-18T05:10:23.138Z,10.17
2022-10-18T05:13:26.175Z,9.60
2022-10-18T05:16:28.648Z,9.68
2022-10-18T05:19:31.570Z,9.32
2022-10-18T05:22:34.181Z,9.88
2022-10-18T05:25:41.513Z,9.77
2022-10-18T05:28:44.200Z,10.77
2022-10-18T05:31:48.687Z,9.90
2022-10-18T05:34:51.277Z,9.10
2022-10-18T05:37:54.421Z,9.65
2022-10-18T05:40:57.813Z,9.60
2022-10-18T05:44:04.827Z,10.50
2022-10-18T05:47:07.334Z,9.82
2022-10-18T05:50:10.072Z,10.02
2022-10-18T05:53:24.759Z,9.70
2022-10-18T05:56:35.327Z,10.20
2022-10-18T05:59:37.921Z,10.37
2022-10-18T06:02:40.795Z,10.85
2022-10-18T06:05:43.722Z,9.73
2022-10-18T06:08:49.460Z,10.15
2022-10-18T06:11:52.164Z,10.90
2022-10-18T06:14:54.659Z,10.50
2022-10-18T06:17:59.117Z,10.63
2022-10-18T06:21:01.645Z,10.10
2022-10-18T06:24:04.628Z,10.88
2022-10-18T06:27:09.440Z,9.37
2022-10-18T06:30:12.268Z,9.03
2022-10-18T06:33:14.852Z,9.60
2022-10-18T06:36:19.935Z,9.27
2022-10-18T06:39:22.586Z,8.82
2022-10-18T06:42:25.334Z,10.03
2022-10-18T06:45:27.839Z,7.90
2022-10-18T06:48:31.704Z,7.90
2022-10-18T06:51:34.299Z,8.02
2022-10-18T06:54:37.082Z,8.45
2022-10-18T06:57:39.597Z,8.43
2022-10-18T07:00:44.290Z,8.10
2022-10-18T07:03:48.424Z,7.85
2022-10-18T07:06:54.183Z,8.68
2022-10-18T07:09:56.769Z,7.55
2022-10-18T07:13:19.945Z,8.03
2022-10-18T07:16:22.343Z,7.43
2022-10-18T07:19:25.243Z,8.65
2022-10-18T07:22:30.298Z,8.40
2022-10-18T07:25:33.318Z,8.05
2022-10-18T07:28:36.095Z,7.73
2022-10-18T07:31:39.284Z,7.90
2022-10-18T07:34:41.949Z,7.85
2022-10-18T07:37:44.809Z,8.02
2022-10-18T07:40:47.901Z,8.13
2022-10-18T07:43:51.969Z,7.53
2022-10-18T07:46:54.435Z,7.67
2022-10-18T07:49:57.191Z,7.78
2022-10-18T07:52:59.805Z,7.53
2022-10-18T07:56:08.590Z,7.82
2022-10-18T07:59:12.456Z,8.93
2022-10-18T08:02:15.292Z,8.00
2022-10-18T08:05:18.058Z,7.62
2022-10-18T08:08:21.874Z,8.20
2022-10-18T08:11:25.401Z,7.55
2022-10-18T08:14:27.998Z,7.90
2022-10-18T08:17:31.227Z,7.93
2022-10-18T08:20:36.330Z,7.60
2022-10-18T08:23:39.299Z,7.70
2022-10-18T08:26:41.924Z,7.90
2022-10-18T08:29:44.756Z,7.72
2022-10-18T08:32:47.281Z,7.53
2022-10-18T08:36:01.027Z,6.95
2022-10-18T08:39:03.715Z,7.28
2022-10-18T08:42:31.139Z,7.70
2022-10-18T08:45:42.506Z,7.03
2022-10-18T08:48:49.228Z,7.60
2022-10-18T08:51:52.354Z,7.20
2022-10-18T08:55:19.825Z,7.53
2022-10-18T08:58:24.293Z,7.00
2022-10-18T09:01:39.431Z,7.32
2022-10-18T09:04:50.831Z,6.67
2022-10-18T09:08:22.111Z,6.80
2022-10-18T09:11:53.015Z,6.75
2022-10-18T09:15:14.693Z,7.20
2022-10-18T09:18:52.091Z,6.28
2022-10-18T09:21:56.718Z,6.20
2022-10-18T09:25:08.439Z,6.80
2022-10-18T09:28:14.051Z,6.72
2022-10-18T09:31:48.989Z,6.72
2022-10-18T09:35:15.830Z,4.93
2022-10-18T09:38:21.747Z,5.97
2022-10-18T09:41:38.004Z,5.57
2022-10-18T09:45:27.193Z,5.12
2022-10-18T09:48:37.717Z,5.53
2022-10-18T09:51:42.247Z,5.60
2022-10-18T09:55:20.602Z,5.53
2022-10-18T09:58:24.292Z,4.93
2022-10-18T10:01:30.085Z,5.50
2022-10-18T10:04:33.242Z,5.97
2022-10-18T10:07:42.615Z,5.22
2022-10-18T10:10:47.659Z,5.50
2022-10-18T10:13:50.233Z,5.70
2022-10-18T10:17:05.783Z,6.25
2022-10-18T10:20:19.128Z,5.90
2022-10-18T10:23:30.890Z,5.57
2022-10-18T10:26:38.925Z,5.97
2022-10-18T10:29:47.882Z,5.30
2022-10-18T10:32:51.494Z,5.25
2022-10-18T10:35:59.499Z,6.05
2022-10-18T10:39:04.668Z,5.55
2022-10-18T10:42:12.834Z,5.70
2022-10-18T10:45:15.445Z,5.97
2022-10-18T10:48:20.044Z,6.20
2022-10-18T10:51:32.429Z,5.20
2022-10-18T10:54:38.921Z,5.40
2022-10-18T10:57:44.648Z,5.57
2022-10-18T11:00:47.352Z,7.68
2022-10-18T11:03:52.062Z,6.68
2022-10-18T11:07:03.181Z,6.50
2022-10-18T11:10:12.295Z,5.47
2022-10-18T11:13:23.696Z,5.77
2022-10-18T11:16:48.082Z,10.48
2022-10-18T11:20:09.792Z,6.25
2022-10-18T11:23:14.270Z,6.03
2022-10-18T11:27:14.175Z,6.03
2022-10-18T11:31:09.521Z,5.17
2022-10-18T11:34:33.710Z,11.80
2022-10-18T11:38:11.164Z,6.22
2022-10-18T11:41:38.386Z,5.57
2022-10-18T11:44:53.972Z,8.70
2022-10-18T11:48:33.764Z,8.83
2022-10-18T11:52:06.713Z,6.32
2022-10-18T11:55:09.536Z,5.37
2022-10-18T11:58:36.675Z,5.18
2022-10-18T12:01:57.798Z,5.83
2022-10-18T12:08:35.335Z,5.90
2022-10-18T12:11:46.843Z,6.37
2022-10-18T12:15:05.726Z,6.15
2022-10-18T12:18:17.768Z,5.60
2022-10-18T12:21:25.445Z,5.83
2022-10-18T12:24:30.485Z,5.57
2022-10-18T12:27:46.756Z,6.20
2022-10-18T12:30:56.093Z,5.97
2022-10-18T12:34:02.144Z,6.00
2022-10-18T12:37:22.728Z,6.03
2022-10-18T12:40:41.756Z,6.22
2022-10-18T12:43:51.756Z,6.70
2022-10-18T12:46:59.721Z,6.70
2022-10-18T12:50:06.606Z,6.53
2022-10-18T12:53:09.563Z,6.30
2022-10-18T12:56:27.945Z,6.50
2022-10-18T12:59:30.289Z,6.10
2022-10-18T13:02:33.640Z,6.12
2022-10-18T13:05:54.301Z,6.37
2022-10-18T13:09:21.486Z,5.67
2022-10-18T13:12:23.832Z,6.32
2022-10-18T13:15:39.557Z,6.53
2022-10-18T13:18:53.496Z,6.05
2022-10-18T13:22:14.718Z,5.80
2022-10-18T13:25:21.154Z,6.10
2022-10-18T13:28:28.889Z,6.12
2022-10-18T13:31:54.817Z,6.25
2022-10-18T13:34:57.587Z,6.35
2022-10-18T13:38:00.131Z,6.10
2022-10-18T13:41:14.894Z,6.27
2022-10-18T13:44:25.331Z,6.10
2022-10-18T13:47:38.449Z,6.20
2022-10-18T13:50:42.449Z,5.97
2022-10-18T13:54:04.007Z,5.50
2022-10-18T13:57:09.355Z,5.60
2022-10-18T14:00:27.640Z,7.12
2022-10-18T14:07:02.240Z,6.45
2022-10-18T14:10:10.289Z,6.23
2022-10-18T14:13:20.982Z,5.70
2022-10-18T14:16:29.775Z,6.00
2022-10-18T14:19:41.333Z,6.40
2022-10-18T14:23:03.013Z,5.78
2022-10-18T14:26:14.809Z,6.00
2022-10-18T14:29:19.870Z,6.03
2022-10-18T14:32:26.092Z,5.85
2022-10-18T14:35:33.054Z,6.35
2022-10-18T14:38:37.969Z,5.78
2022-10-18T14:41:52.129Z,6.40
2022-10-18T14:44:56.495Z,7.20
2022-10-18T14:48:14.847Z,8.85
2022-10-18T14:51:19.857Z,7.45
2022-10-18T14:54:33.926Z,7.22
2022-10-18T14:57:37.089Z,7.47
2022-10-18T15:00:41.845Z,7.80
2022-10-18T15:03:47.498Z,8.27
2022-10-18T15:06:50.349Z,8.55
2022-10-18T15:09:53.743Z,8.73
2022-10-18T15:13:11.163Z,9.13
2022-10-18T15:16:19.221Z,8.60
2022-10-18T15:19:21.921Z,8.65
2022-10-18T15:22:31.612Z,9.52
2022-10-18T15:25:35.988Z,8.32
2022-10-18T15:28:58.724Z,9.37
2022-10-18T15:32:21.673Z,8.60
2022-10-18T15:35:27.958Z,8.63
2022-10-18T15:38:32.758Z,9.88
2022-10-18T15:41:49.794Z,9.32
2022-10-18T15:44:52.552Z,9.73
2022-10-18T15:48:07.038Z,8.60
2022-10-18T15:51:37.218Z,9.10
2022-10-18T15:54:39.739Z,9.43
2022-10-18T15:57:43.050Z,18.90
2022-10-18T16:00:46.985Z,18.73
2022-10-18T16:03:50.865Z,15.30
2022-10-18T16:06:55.540Z,30.58
2022-10-18T16:09:59.268Z,12.18
2022-10-18T16:13:01.739Z,12.00
2022-10-18T16:16:04.655Z,8.80
2022-10-18T16:19:08.264Z,11.03
2022-10-18T16:25:16.064Z,10.63
2022-10-18T16:28:23.934Z,9.40
2022-10-18T16:31:31.980Z,7.73
2022-10-18T16:34:34.754Z,8.13
2022-10-18T16:37:38.321Z,8.98
2022-10-18T16:40:41.491Z,9.77
2022-10-18T16:43:45.850Z,9.50
2022-10-18T16:46:51.153Z,11.33
2022-10-18T16:49:56.376Z,10.77
2022-10-18T16:52:59.087Z,11.48
2022-10-18T16:56:03.198Z,11.23
2022-10-18T16:59:05.970Z,10.32
2022-10-18T17:02:09.312Z,9.80
2022-10-18T17:05:12.135Z,10.53
2022-10-18T17:08:23.754Z,10.73
2022-10-18T17:11:28.370Z,33.25
2022-10-18T17:14:33.310Z,28.87
2022-10-18T17:17:36.314Z,46.63
2022-10-18T17:20:39.032Z,24.63
2022-10-18T17:23:41.874Z,23.10
2022-10-18T17:26:44.347Z,17.60
2022-10-18T17:29:47.080Z,16.60
2022-10-18T17:32:49.547Z,19.00
2022-10-18T17:35:52.318Z,19.67
2022-10-18T17:38:55.108Z,18.48
2022-10-18T17:41:58.082Z,17.23
2022-10-18T17:45:00.990Z,14.40
2022-10-18T17:48:03.788Z,17.57
2022-10-18T17:51:11.363Z,18.40
2022-10-18T17:54:14.180Z,24.63
2022-10-18T17:57:16.838Z,23.15
2022-10-18T18:00:19.645Z,29.30
2022-10-18T18:03:22.551Z,31.20
2022-10-18T18:06:34.161Z,36.10
2022-10-18T18:09:37.083Z,23.60
2022-10-18T18:12:39.590Z,24.52
2022-10-18T18:15:42.301Z,17.60
2022-10-18T18:18:47.197Z,25.03
2022-10-18T18:21:53.685Z,27.33
2022-10-18T18:24:56.213Z,28.50
2022-10-18T18:28:01.467Z,30.25
2022-10-18T18:31:14.584Z,30.92
2022-10-18T18:34:17.816Z,32.53
2022-10-18T18:37:20.659Z,30.90
2022-10-18T18:40:23.927Z,31.83
2022-10-18T18:43:26.370Z,29.58
2022-10-18T18:46:33.078Z,29.70
2022-10-18T18:49:35.566Z,29.17
2022-10-18T18:52:38.267Z,30.43
2022-10-18T18:55:42.092Z,26.80
2022-10-18T18:58:45.543Z,28.35
2022-10-18T19:01:48.087Z,29.75
2022-10-18T19:04:51.484Z,30.53
2022-10-18T19:07:53.965Z,30.57
2022-10-18T19:10:57.531Z,30.10
2022-10-18T19:14:00.900Z,27.77
2022-10-18T19:17:07.111Z,27.45
2022-10-18T19:20:12.727Z,25.67
2022-10-18T19:23:15.894Z,26.20
2022-10-18T19:26:46.056Z,23.85
2022-10-18T19:29:48.901Z,25.02
2022-10-18T19:32:59.880Z,24.60
2022-10-18T19:36:05.971Z,25.47
2022-10-18T19:39:11.174Z,23.33
2022-10-18T19:42:18.606Z,27.33
2022-10-18T19:45:24.974Z,25.92
2022-10-18T19:48:27.693Z,26.33
2022-10-18T19:51:30.167Z,27.07
2022-10-18T19:54:32.896Z,29.67
2022-10-18T19:57:35.370Z,27.95
2022-10-18T20:00:40.037Z,28.02
2022-10-18T20:03:43.182Z,28.02
2022-10-18T20:06:45.689Z,26.50
2022-10-18T20:09:48.588Z,28.43
2022-10-18T20:12:51.116Z,27.95
2022-10-18T20:15:54.167Z,29.75
2022-10-18T20:18:58.563Z,27.13
2022-10-18T20:22:01.425Z,25.63
2022-10-18T20:25:04.029Z,26.57
2022-10-18T20:28:07.031Z,25.20
2022-10-18T20:31:15.397Z,26.17
2022-10-18T20:34:18.323Z,23.17
2022-10-18T20:37:20.844Z,22.63
2022-10-18T20:40:23.912Z,22.07
2022-10-18T20:43:26.412Z,21.23
2022-10-18T20:46:34.404Z,22.75
2022-10-18T20:49:37.026Z,22.20
2022-10-18T20:52:39.736Z,21.80
2022-10-18T20:55:43.637Z,19.07
2022-10-18T20:58:47.019Z,20.30
2022-10-18T21:01:49.536Z,20.02
2022-10-18T21:04:52.332Z,19.75
2022-10-18T21:07:54.764Z,18.97
2022-10-18T21:11:01.089Z,19.03
2022-10-18T21:14:04.467Z,22.45
2022-10-18T21:17:07.178Z,24.42
2022-10-18T21:20:10.435Z,22.48
2022-10-18T21:23:13.176Z,22.70
2022-10-18T21:26:21.140Z,19.20
2022-10-18T21:29:27.037Z,19.27
2022-10-18T21:32:29.588Z,18.75
2022-10-18T21:35:37.767Z,18.40
2022-10-18T21:38:40.424Z,17.33
2022-10-18T21:41:43.417Z,17.47
2022-10-18T21:44:45.967Z,18.17
2022-10-18T21:47:48.730Z,18.65
2022-10-18T21:50:51.366Z,17.27
2022-10-18T21:53:56.166Z,17.13
2022-10-18T21:56:58.629Z,13.27
2022-10-18T22:00:01.487Z,15.60
2022-10-18T22:03:11.466Z,15.32
2022-10-18T22:06:15.391Z,17.15
2022-10-18T22:09:17.945Z,12.10
2022-10-18T22:12:20.729Z,15.37
2022-10-18T22:15:23.336Z,14.87
2022-10-18T22:18:26.196Z,13.40
2022-10-18T22:21:29.624Z,15.48
2022-10-18T22:24:32.435Z,15.00
2022-10-18T22:27:35.407Z,16.47
2022-10-18T22:30:40.118Z,15.77
2022-10-18T22:33:42.836Z,17.52
2022-10-18T22:36:45.964Z,16.30
2022-10-18T22:39:48.387Z,16.27
2022-10-18T22:42:53.991Z,16.10
2022-10-18T22:45:56.513Z,15.15
2022-10-18T22:48:59.259Z,16.25
2022-10-18T22:52:01.693Z,16.58
2022-10-18T22:55:04.710Z,15.93
2022-10-18T22:58:07.356Z,16.50
2022-10-18T23:01:15.675Z,16.48
2022-10-18T23:04:18.094Z,13.38
2022-10-18T23:07:20.938Z,15.63
2022-10-18T23:10:24.970Z,14.93
2022-10-18T23:13:28.190Z,16.10
2022-10-18T23:16:31.494Z,14.55
2022-10-18T23:19:34.190Z,17.52
2022-10-18T23:22:36.691Z,15.35
2022-10-18T23:25:39.523Z,18.10
2022-10-18T23:28:43.956Z,15.03
2022-10-18T23:31:46.771Z,15.93
2022-10-18T23:34:49.187Z,15.65
2022-10-18T23:37:52.483Z,15.02
2022-10-18T23:40:56.342Z,16.17
2022-10-18T23:43:59.060Z,14.73
2022-10-18T23:47:01.591Z,17.08
2022-10-18T23:50:05.569Z,16.02
2022-10-18T23:53:08.038Z,15.73
2022-10-18T23:56:12.864Z,14.17
2022-10-18T23:59:15.297Z,9.37
